Time;durP1;ratioP1;P1;durP2;ratioP2;P2;SDS_P1;SDS_P2;PMS_P1;PMS_P2;Temp;Humidity;BMP_temperature;BMP_pressure;BME280_temperature;BME280_humidity;BME280_pressure;Samples;Min_cycle;Max_cycle;Signal;HPM_P1;HPM_P2
2021/10/06 00:00:06;;;;;;;8.73;1.63;;;;;;;;;;696450;28;918;-68
2021/10/06 00:00:27;;;;;;;9.82;2.10;;;;;;;;;;696552;28;846;-68
2021/10/06 00:00:47;;;;;;;7.90;2.10;;;;;;;;;;696506;28;904;-68
2021/10/06 00:01:07;;;;;;;6.23;1.70;;;;;;;;;;696438;28;912;-69
2021/10/06 00:01:30;;;;;;;6.73;1.80;;;;;;;;;;696399;28;1338;-68
2021/10/06 00:01:50;;;;;;;8.00;1.58;;;;;;;;;;696388;28;952;-69
2021/10/06 00:02:10;;;;;;;7.20;1.70;;;;;;;;;;696379;28;916;-68
2021/10/06 00:02:30;;;;;;;7.60;1.70;;;;;;;;;;696533;28;1150;-68
2021/10/06 00:02:51;;;;;;;10.63;1.90;;;;;;;;;;695925;28;978;-68
2021/10/06 00:03:11;;;;;;;11.80;2.00;;;;;;;;;;696473;28;821;-68
2021/10/06 00:03:31;;;;;;;8.15;1.70;;;;;;;;;;696472;28;1115;-68
2021/10/06 00:03:51;;;;;;;8.60;1.93;;;;;;;;;;696358;28;955;-68
2021/10/06 00:04:11;;;;;;;8.23;1.90;;;;;;;;;;696465;28;895;-68
2021/10/06 00:04:31;;;;;;;7.80;1.90;;;;;;;;;;694902;28;1456;-68
2021/10/06 00:04:52;;;;;;;7.00;1.90;;;;;;;;;;693678;28;915;-68
2021/10/06 00:05:12;;;;;;;7.03;1.80;;;;;;;;;;693735;28;789;-69
2021/10/06 00:05:32;;;;;;;7.17;1.77;;;;;;;;;;693774;28;1377;-68
2021/10/06 00:05:52;;;;;;;10.67;1.93;;;;;;;;;;693605;28;814;-69
2021/10/06 00:06:12;;;;;;;8.50;1.85;;;;;;;;;;693668;28;1321;-69
2021/10/06 00:06:33;;;;;;;9.00;1.73;;;;;;;;;;696386;28;1325;-68
2021/10/06 00:06:53;;;;;;;8.17;1.40;;;;;;;;;;696333;28;840;-68
2021/10/06 00:07:13;;;;;;;8.07;1.47;;;;;;;;;;696498;28;874;-68
2021/10/06 00:07:33;;;;;;;6.90;1.30;;;;;;;;;;696303;28;2417;-68
2021/10/06 00:07:53;;;;;;;5.10;1.23;;;;;;;;;;696182;28;1525;-67
2021/10/06 00:08:13;;;;;;;7.20;1.60;;;;;;;;;;696216;28;875;-68
2021/10/06 00:08:34;;;;;;;6.23;1.67;;;;;;;;;;696207;28;978;-68
2021/10/06 00:08:54;;;;;;;8.77;1.50;;;;;;;;;;696312;28;816;-65
2021/10/06 00:09:17;;;;;;;10.23;1.48;;;;;;;;;;696222;28;947;-64
2021/10/06 00:09:37;;;;;;;7.75;1.30;;;;;;;;;;696245;28;889;-66
2021/10/06 00:09:57;;;;;;;8.07;1.47;;;;;;;;;;696184;28;1360;-66
2021/10/06 00:10:17;;;;;;;7.30;1.53;;;;;;;;;;696461;28;833;-66
2021/10/06 00:10:37;;;;;;;7.67;1.60;;;;;;;;;;696453;28;965;-66
2021/10/06 00:10:58;;;;;;;5.68;1.35;;;;;;;;;;696499;28;926;-65
2021/10/06 00:11:18;;;;;;;5.93;1.37;;;;;;;;;;696310;28;1113;-65
2021/10/06 00:11:40;;;;;;;6.33;1.50;;;;;;;;;;696443;28;1407;-65
2021/10/06 00:12:00;;;;;;;6.07;1.45;;;;;;;;;;696439;28;907;-65
2021/10/06 00:12:20;;;;;;;7.10;1.27;;;;;;;;;;696324;28;888;-65
2021/10/06 00:12:43;;;;;;;10.83;1.77;;;;;;;;;;696283;28;860;-65
2021/10/06 00:13:03;;;;;;;8.45;1.58;;;;;;;;;;696338;28;816;-66
2021/10/06 00:13:23;;;;;;;7.93;1.55;;;;;;;;;;696236;28;1300;-66
2021/10/06 00:13:43;;;;;;;7.87;1.70;;;;;;;;;;696551;28;938;-66
2021/10/06 00:14:04;;;;;;;6.13;1.30;;;;;;;;;;696386;28;849;-65
2021/10/06 00:14:24;;;;;;;5.87;1.33;;;;;;;;;;696143;28;1432;-65
2021/10/06 00:14:44;;;;;;;5.97;1.50;;;;;;;;;;693884;28;1416;-65
2021/10/06 00:15:05;;;;;;;6.03;1.30;;;;;;;;;;693418;28;932;-64
2021/10/06 00:15:26;;;;;;;6.68;1.25;;;;;;;;;;693750;28;962;-66
2021/10/06 00:15:46;;;;;;;7.82;1.38;;;;;;;;;;693768;28;816;-65
2021/10/06 00:16:09;;;;;;;9.30;1.70;;;;;;;;;;693528;28;1005;-65
2021/10/06 00:16:29;;;;;;;7.05;1.35;;;;;;;;;;693745;28;852;-66
2021/10/06 00:16:51;;;;;;;6.20;1.33;;;;;;;;;;693752;28;841;-65
2021/10/06 00:17:12;;;;;;;7.47;1.70;;;;;;;;;;693671;28;896;-65
2021/10/06 00:17:32;;;;;;;6.50;1.57;;;;;;;;;;693645;28;975;-65
2021/10/06 00:17:52;;;;;;;6.23;1.40;;;;;;;;;;693658;28;814;-65
2021/10/06 00:18:14;;;;;;;6.30;1.52;;;;;;;;;;695400;28;1432;-65
2021/10/06 00:18:34;;;;;;;5.85;1.50;;;;;;;;;;696481;28;950;-65
2021/10/06 00:18:54;;;;;;;6.27;1.30;;;;;;;;;;696394;28;978;-65
2021/10/06 00:19:14;;;;;;;6.47;1.20;;;;;;;;;;696500;28;887;-65
2021/10/06 00:19:34;;;;;;;6.27;1.40;;;;;;;;;;696420;28;971;-63
2021/10/06 00:19:55;;;;;;;6.67;1.43;;;;;;;;;;696333;28;828;-66
2021/10/06 00:20:15;;;;;;;4.93;1.20;;;;;;;;;;696350;28;911;-65
2021/10/06 00:20:35;;;;;;;6.15;1.30;;;;;;;;;;696458;28;864;-65
2021/10/06 00:20:56;;;;;;;6.07;1.23;;;;;;;;;;696306;28;959;-65
2021/10/06 00:21:16;;;;;;;4.20;1.10;;;;;;;;;;695934;28;1447;-65
2021/10/06 00:21:36;;;;;;;6.72;1.30;;;;;;;;;;693536;28;1334;-65
2021/10/06 00:21:57;;;;;;;7.03;1.20;;;;;;;;;;693642;28;817;-65
2021/10/06 00:22:18;;;;;;;6.15;1.10;;;;;;;;;;695269;28;1369;-65
2021/10/06 00:22:38;;;;;;;7.15;1.35;;;;;;;;;;696245;28;890;-64
2021/10/06 00:22:59;;;;;;;6.30;1.00;;;;;;;;;;696197;28;877;-64
2021/10/06 00:23:19;;;;;;;6.55;1.10;;;;;;;;;;696184;28;1356;-65
2021/10/06 00:23:39;;;;;;;6.70;1.30;;;;;;;;;;696332;28;864;-65
2021/10/06 00:23:59;;;;;;;7.27;1.40;;;;;;;;;;696397;28;855;-65
2021/10/06 00:24:19;;;;;;;5.20;1.13;;;;;;;;;;696050;28;1372;-65
2021/10/06 00:24:39;;;;;;;5.90;1.40;;;;;;;;;;694361;28;1385;-65
2021/10/06 00:25:00;;;;;;;6.30;1.37;;;;;;;;;;695313;28;1441;-65
2021/10/06 00:25:20;;;;;;;9.47;1.50;;;;;;;;;;696402;28;870;-65
2021/10/06 00:25:40;;;;;;;7.70;1.33;;;;;;;;;;696451;28;931;-65
2021/10/06 00:26:01;;;;;;;7.00;1.30;;;;;;;;;;696391;28;848;-64
2021/10/06 00:26:21;;;;;;;6.53;1.23;;;;;;;;;;696241;28;987;-65
2021/10/06 00:26:41;;;;;;;7.73;1.40;;;;;;;;;;696447;28;1002;-65
2021/10/06 00:27:01;;;;;;;6.90;1.40;;;;;;;;;;696421;28;812;-65
2021/10/06 00:27:21;;;;;;;7.03;1.30;;;;;;;;;;696387;28;1076;-66
2021/10/06 00:27:41;;;;;;;7.20;1.27;;;;;;;;;;696352;28;1925;-65
2021/10/06 00:28:02;;;;;;;6.67;1.33;;;;;;;;;;696345;28;942;-65
2021/10/06 00:28:22;;;;;;;5.53;1.33;;;;;;;;;;696290;28;887;-66
2021/10/06 00:28:42;;;;;;;7.43;1.37;;;;;;;;;;696340;28;830;-65
2021/10/06 00:29:03;;;;;;;6.93;1.20;;;;;;;;;;696373;28;966;-65
2021/10/06 00:29:23;;;;;;;6.07;1.20;;;;;;;;;;696417;28;1066;-65
2021/10/06 00:29:43;;;;;;;6.67;1.20;;;;;;;;;;696422;28;888;-65
2021/10/06 00:30:03;;;;;;;6.60;1.10;;;;;;;;;;694850;28;1369;-65
2021/10/06 00:30:24;;;;;;;6.35;1.10;;;;;;;;;;693660;28;864;-65
2021/10/06 00:30:44;;;;;;;7.03;1.23;;;;;;;;;;693729;28;887;-64
2021/10/06 00:31:04;;;;;;;6.20;1.33;;;;;;;;;;693640;28;801;-64
2021/10/06 00:31:24;;;;;;;6.50;1.20;;;;;;;;;;694726;28;1361;-64
2021/10/06 00:31:44;;;;;;;6.28;1.30;;;;;;;;;;696314;28;982;-64
2021/10/06 00:32:05;;;;;;;6.07;1.20;;;;;;;;;;696313;28;770;-63
2021/10/06 00:32:25;;;;;;;5.83;1.00;;;;;;;;;;696424;28;810;-65
2021/10/06 00:32:45;;;;;;;6.57;1.10;;;;;;;;;;693903;28;1475;-65
2021/10/06 00:33:05;;;;;;;5.82;1.13;;;;;;;;;;693690;28;1026;-65
2021/10/06 00:33:26;;;;;;;5.23;0.97;;;;;;;;;;693658;28;978;-64
2021/10/06 00:33:46;;;;;;;5.53;1.10;;;;;;;;;;693572;28;796;-64
2021/10/06 00:34:06;;;;;;;6.03;1.00;;;;;;;;;;693587;28;983;-64
2021/10/06 00:34:26;;;;;;;6.70;1.00;;;;;;;;;;693549;28;890;-65
2021/10/06 00:34:47;;;;;;;6.57;1.00;;;;;;;;;;693617;28;848;-64
2021/10/06 00:35:07;;;;;;;6.22;0.80;;;;;;;;;;693717;28;879;-65
2021/10/06 00:35:27;;;;;;;4.97;0.70;;;;;;;;;;693766;28;832;-65
2021/10/06 00:35:47;;;;;;;5.60;0.90;;;;;;;;;;693553;28;830;-65
2021/10/06 00:36:08;;;;;;;4.72;0.70;;;;;;;;;;693677;28;979;-65
2021/10/06 00:36:28;;;;;;;3.80;0.70;;;;;;;;;;693604;28;975;-65
2021/10/06 00:36:48;;;;;;;3.05;0.65;;;;;;;;;;693624;28;817;-66
2021/10/06 00:37:09;;;;;;;3.70;0.67;;;;;;;;;;693659;28;1041;-65
2021/10/06 00:37:29;;;;;;;4.43;0.70;;;;;;;;;;693672;28;1037;-64
2021/10/06 00:37:49;;;;;;;5.37;0.83;;;;;;;;;;693696;28;1003;-65
2021/10/06 00:38:09;;;;;;;5.65;0.80;;;;;;;;;;693711;28;862;-64
2021/10/06 00:38:29;;;;;;;4.17;0.73;;;;;;;;;;693284;28;967;-65
2021/10/06 00:38:52;;;;;;;4.73;0.83;;;;;;;;;;693501;28;916;-65
2021/10/06 00:39:12;;;;;;;4.07;0.82;;;;;;;;;;693510;28;804;-65
2021/10/06 00:39:32;;;;;;;5.27;0.90;;;;;;;;;;693451;28;879;-65
2021/10/06 00:39:53;;;;;;;5.73;0.80;;;;;;;;;;693522;28;859;-65
2021/10/06 00:40:13;;;;;;;6.03;0.90;;;;;;;;;;693434;28;856;-64
2021/10/06 00:40:33;;;;;;;6.33;1.00;;;;;;;;;;693684;28;844;-66
2021/10/06 00:40:57;;;;;;;5.57;1.07;;;;;;;;;;693724;28;996;-64
2021/10/06 00:41:17;;;;;;;4.28;0.90;;;;;;;;;;693627;28;1428;-65
2021/10/06 00:41:37;;;;;;;4.40;0.90;;;;;;;;;;696087;28;1582;-65
2021/10/06 00:41:57;;;;;;;3.47;0.67;;;;;;;;;;695703;28;1463;-65
2021/10/06 00:42:17;;;;;;;4.72;0.80;;;;;;;;;;693548;28;808;-65
2021/10/06 00:42:41;;;;;;;5.17;0.80;;;;;;;;;;693565;28;1404;-65
2021/10/06 00:43:01;;;;;;;4.45;0.70;;;;;;;;;;693398;28;845;-65
2021/10/06 00:43:21;;;;;;;5.60;0.80;;;;;;;;;;693742;28;971;-65
2021/10/06 00:43:41;;;;;;;5.87;1.00;;;;;;;;;;693727;28;1046;-65
2021/10/06 00:44:01;;;;;;;5.80;1.00;;;;;;;;;;693515;28;1035;-65
2021/10/06 00:44:22;;;;;;;5.47;0.90;;;;;;;;;;693464;28;999;-65
2021/10/06 00:44:42;;;;;;;5.13;1.00;;;;;;;;;;693444;28;1047;-65
2021/10/06 00:45:03;;;;;;;4.95;0.90;;;;;;;;;;693549;28;948;-64
2021/10/06 00:45:23;;;;;;;5.47;1.00;;;;;;;;;;693693;28;886;-65
2021/10/06 00:45:43;;;;;;;5.90;1.20;;;;;;;;;;693713;28;871;-66
2021/10/06 00:46:04;;;;;;;6.10;1.07;;;;;;;;;;693573;28;938;-66
2021/10/06 00:46:24;;;;;;;6.70;1.23;;;;;;;;;;693671;28;963;-66
2021/10/06 00:46:44;;;;;;;5.37;1.20;;;;;;;;;;693667;28;805;-66
2021/10/06 00:47:05;;;;;;;5.87;0.97;;;;;;;;;;693573;28;881;-65
2021/10/06 00:47:25;;;;;;;5.10;1.03;;;;;;;;;;693612;28;1903;-65
2021/10/06 00:47:45;;;;;;;4.70;1.00;;;;;;;;;;693675;28;982;-65
2021/10/06 00:48:05;;;;;;;4.70;1.00;;;;;;;;;;693611;28;789;-65
2021/10/06 00:48:26;;;;;;;4.30;0.88;;;;;;;;;;693330;28;1350;-66
2021/10/06 00:48:46;;;;;;;5.27;0.90;;;;;;;;;;693609;28;912;-64
2021/10/06 00:49:06;;;;;;;4.87;0.80;;;;;;;;;;693682;28;823;-65
2021/10/06 00:49:26;;;;;;;3.90;0.90;;;;;;;;;;693654;28;983;-65
2021/10/06 00:49:46;;;;;;;5.47;1.10;;;;;;;;;;693690;28;891;-66
2021/10/06 00:50:07;;;;;;;6.60;1.10;;;;;;;;;;693573;28;1037;-65
2021/10/06 00:50:27;;;;;;;5.43;0.90;;;;;;;;;;693619;28;931;-65
2021/10/06 00:50:47;;;;;;;5.22;1.02;;;;;;;;;;693660;28;931;-64
2021/10/06 00:51:07;;;;;;;5.20;1.10;;;;;;;;;;693535;28;888;-65
2021/10/06 00:51:30;;;;;;;5.60;1.00;;;;;;;;;;694426;28;1567;-65
2021/10/06 00:51:50;;;;;;;6.38;1.30;;;;;;;;;;696308;28;1467;-65
2021/10/06 00:52:11;;;;;;;7.17;1.27;;;;;;;;;;694233;28;1436;-65
2021/10/06 00:52:32;;;;;;;4.70;1.00;;;;;;;;;;696328;28;951;-66
2021/10/06 00:52:52;;;;;;;6.90;1.30;;;;;;;;;;696062;28;938;-65
2021/10/06 00:53:15;;;;;;;6.87;1.30;;;;;;;;;;696312;28;808;-66
2021/10/06 00:53:38;;;;;;;5.10;1.25;;;;;;;;;;696299;28;1258;-66
2021/10/06 00:53:59;;;;;;;7.63;1.42;;;;;;;;;;696386;28;965;-66
2021/10/06 00:54:20;;;;;;;5.97;1.40;;;;;;;;;;694012;28;1460;-66
2021/10/06 00:54:41;;;;;;;6.73;1.30;;;;;;;;;;693675;28;927;-65
2021/10/06 00:55:01;;;;;;;6.32;1.52;;;;;;;;;;693585;28;1365;-64
2021/10/06 00:55:21;;;;;;;4.70;1.27;;;;;;;;;;693561;28;1106;-65
2021/10/06 00:55:41;;;;;;;6.47;1.20;;;;;;;;;;693795;28;919;-65
2021/10/06 00:56:01;;;;;;;6.30;1.20;;;;;;;;;;693642;28;883;-66
2021/10/06 00:56:22;;;;;;;8.60;1.40;;;;;;;;;;693518;28;824;-66
2021/10/06 00:56:42;;;;;;;6.60;1.33;;;;;;;;;;693706;28;846;-65
2021/10/06 00:57:03;;;;;;;5.90;1.10;;;;;;;;;;694991;28;1369;-65
2021/10/06 00:57:23;;;;;;;4.45;0.90;;;;;;;;;;696250;28;850;-65
2021/10/06 00:57:43;;;;;;;4.40;0.90;;;;;;;;;;696453;28;832;-66
2021/10/06 00:58:04;;;;;;;3.80;0.83;;;;;;;;;;696347;28;892;-65
2021/10/06 00:58:24;;;;;;;4.05;0.80;;;;;;;;;;696412;28;931;-65
2021/10/06 00:58:47;;;;;;;5.83;0.90;;;;;;;;;;696415;28;868;-65
2021/10/06 00:59:07;;;;;;;5.35;1.00;;;;;;;;;;696386;28;1099;-65
2021/10/06 00:59:28;;;;;;;3.97;0.80;;;;;;;;;;696389;28;761;-67
2021/10/06 00:59:48;;;;;;;3.80;0.70;;;;;;;;;;696532;28;788;-66
2021/10/06 01:00:09;;;;;;;4.77;0.90;;;;;;;;;;696391;28;998;-66
2021/10/06 01:00:29;;;;;;;5.07;0.98;;;;;;;;;;696218;28;1192;-66
2021/10/06 01:00:50;;;;;;;5.23;1.07;;;;;;;;;;696486;28;931;-65
2021/10/06 01:01:10;;;;;;;4.57;1.00;;;;;;;;;;696392;28;863;-65
2021/10/06 01:01:30;;;;;;;6.23;1.03;;;;;;;;;;695579;28;1432;-66
2021/10/06 01:01:50;;;;;;;4.70;0.82;;;;;;;;;;696350;28;880;-66
2021/10/06 01:02:10;;;;;;;6.43;0.97;;;;;;;;;;696534;28;986;-65
2021/10/06 01:02:30;;;;;;;6.17;1.00;;;;;;;;;;696006;28;1309;-66
2021/10/06 01:02:51;;;;;;;5.10;0.93;;;;;;;;;;695895;28;874;-66
2021/10/06 01:03:11;;;;;;;4.90;1.23;;;;;;;;;;696356;28;1030;-65
2021/10/06 01:03:31;;;;;;;5.30;1.20;;;;;;;;;;696347;28;1015;-65
2021/10/06 01:03:51;;;;;;;6.07;1.20;;;;;;;;;;696342;28;797;-65
2021/10/06 01:04:12;;;;;;;5.40;1.00;;;;;;;;;;696451;28;820;-65
2021/10/06 01:04:32;;;;;;;6.22;1.10;;;;;;;;;;696299;28;1019;-65
2021/10/06 01:04:53;;;;;;;4.82;0.85;;;;;;;;;;696328;28;844;-65
2021/10/06 01:05:13;;;;;;;5.87;1.00;;;;;;;;;;696405;28;920;-65
2021/10/06 01:05:33;;;;;;;5.37;1.10;;;;;;;;;;696305;28;872;-65
2021/10/06 01:05:54;;;;;;;4.80;1.30;;;;;;;;;;695757;28;1400;-65
2021/10/06 01:06:15;;;;;;;5.25;1.33;;;;;;;;;;693603;28;899;-65
2021/10/06 01:06:35;;;;;;;5.57;1.60;;;;;;;;;;693400;28;1014;-65
2021/10/06 01:06:56;;;;;;;6.45;1.80;;;;;;;;;;693706;28;1482;-65
2021/10/06 01:07:17;;;;;;;9.90;2.17;;;;;;;;;;695930;28;1412;-65
2021/10/06 01:07:37;;;;;;;9.15;2.38;;;;;;;;;;696134;28;1957;-65
2021/10/06 01:07:58;;;;;;;7.90;2.22;;;;;;;;;;696261;28;975;-65
2021/10/06 01:08:19;;;;;;;8.02;2.30;;;;;;;;;;696081;28;1434;-65
2021/10/06 01:08:39;;;;;;;8.13;2.20;;;;;;;;;;696185;28;1022;-64
2021/10/06 01:08:59;;;;;;;7.57;1.90;;;;;;;;;;696366;28;805;-65
2021/10/06 01:09:20;;;;;;;7.03;1.90;;;;;;;;;;696037;28;1424;-65
2021/10/06 01:09:41;;;;;;;7.30;2.20;;;;;;;;;;696275;28;1035;-65
2021/10/06 01:10:02;;;;;;;7.45;2.03;;;;;;;;;;696360;28;1045;-64
2021/10/06 01:10:22;;;;;;;7.45;2.00;;;;;;;;;;696241;28;813;-64
2021/10/06 01:10:43;;;;;;;7.13;1.95;;;;;;;;;;696322;28;884;-65
2021/10/06 01:11:03;;;;;;;7.33;2.17;;;;;;;;;;696153;28;876;-65
2021/10/06 01:11:26;;;;;;;7.63;1.77;;;;;;;;;;695962;28;1259;-65
2021/10/06 01:11:46;;;;;;;7.45;1.63;;;;;;;;;;693743;28;1584;-64
2021/10/06 01:12:06;;;;;;;7.87;1.60;;;;;;;;;;693404;28;826;-65
2021/10/06 01:12:26;;;;;;;7.90;1.83;;;;;;;;;;693297;28;1392;-65
2021/10/06 01:12:47;;;;;;;8.63;2.00;;;;;;;;;;692905;28;994;-65
2021/10/06 01:13:07;;;;;;;9.25;1.88;;;;;;;;;;693505;28;847;-65
2021/10/06 01:13:27;;;;;;;8.03;2.07;;;;;;;;;;693636;28;843;-64
2021/10/06 01:13:48;;;;;;;8.43;2.00;;;;;;;;;;693503;28;1405;-63
2021/10/06 01:14:08;;;;;;;6.77;1.77;;;;;;;;;;696028;28;1392;-65
2021/10/06 01:14:29;;;;;;;6.30;1.77;;;;;;;;;;696247;28;974;-65
2021/10/06 01:14:49;;;;;;;7.47;1.53;;;;;;;;;;696357;28;991;-64
2021/10/06 01:15:13;;;;;;;8.88;1.80;;;;;;;;;;696203;28;943;-65
2021/10/06 01:15:33;;;;;;;7.05;1.60;;;;;;;;;;696395;28;804;-65
2021/10/06 01:15:53;;;;;;;7.53;1.63;;;;;;;;;;696071;28;951;-65
2021/10/06 01:16:14;;;;;;;8.33;1.70;;;;;;;;;;696413;28;961;-66
2021/10/06 01:16:34;;;;;;;7.95;1.63;;;;;;;;;;696354;28;835;-65
2021/10/06 01:16:54;;;;;;;6.57;1.47;;;;;;;;;;696225;28;867;-65
2021/10/06 01:17:15;;;;;;;6.32;1.60;;;;;;;;;;693975;28;1381;-65
2021/10/06 01:17:35;;;;;;;5.77;1.30;;;;;;;;;;693669;28;808;-65
2021/10/06 01:17:55;;;;;;;8.10;1.37;;;;;;;;;;694107;28;1447;-64
2021/10/06 01:18:16;;;;;;;5.97;1.20;;;;;;;;;;695971;28;1425;-65
2021/10/06 01:18:37;;;;;;;5.00;1.20;;;;;;;;;;693512;28;848;-65
2021/10/06 01:18:57;;;;;;;5.93;1.20;;;;;;;;;;693529;28;872;-65
2021/10/06 01:19:18;;;;;;;5.23;1.00;;;;;;;;;;693627;28;983;-65
2021/10/06 01:19:38;;;;;;;4.63;1.02;;;;;;;;;;693579;28;890;-66
2021/10/06 01:19:58;;;;;;;6.72;1.10;;;;;;;;;;693509;28;1046;-66
2021/10/06 01:20:18;;;;;;;4.83;0.90;;;;;;;;;;693511;28;963;-67
2021/10/06 01:20:38;;;;;;;5.27;1.17;;;;;;;;;;693439;28;947;-67
2021/10/06 01:21:08;;;;;;;5.20;1.07;;;;;;;;;;693614;28;877;-68
2021/10/06 01:21:28;;;;;;;7.45;1.40;;;;;;;;;;693494;28;1256;-68
2021/10/06 01:21:49;;;;;;;4.53;0.97;;;;;;;;;;694803;28;1420;-68
2021/10/06 01:22:09;;;;;;;5.05;1.02;;;;;;;;;;693823;28;1448;-68
2021/10/06 01:22:29;;;;;;;5.23;1.10;;;;;;;;;;696166;28;777;-68
2021/10/06 01:22:49;;;;;;;5.83;1.00;;;;;;;;;;695874;28;816;-69
2021/10/06 01:23:09;;;;;;;5.20;1.17;;;;;;;;;;696294;28;978;-68
2021/10/06 01:23:30;;;;;;;7.22;1.40;;;;;;;;;;696264;28;840;-68
2021/10/06 01:23:50;;;;;;;7.30;1.20;;;;;;;;;;696403;28;915;-68
2021/10/06 01:24:10;;;;;;;6.97;1.00;;;;;;;;;;696259;28;891;-67
2021/10/06 01:24:30;;;;;;;4.93;1.00;;;;;;;;;;696253;28;990;-67
2021/10/06 01:24:53;;;;;;;5.97;1.20;;;;;;;;;;695339;28;1416;-68
2021/10/06 01:25:15;;;;;;;5.60;1.10;;;;;;;;;;693629;28;971;-68
2021/10/06 01:25:35;;;;;;;5.18;1.15;;;;;;;;;;693498;28;907;-71
2021/10/06 01:25:55;;;;;;;6.17;1.03;;;;;;;;;;693633;28;871;-74
2021/10/06 01:26:18;;;;;;;6.10;1.15;;;;;;;;;;693423;28;808;-69
2021/10/06 01:26:39;;;;;;;4.47;1.10;;;;;;;;;;693571;28;822;-67
2021/10/06 01:26:59;;;;;;;4.43;0.90;;;;;;;;;;693605;28;869;-67
2021/10/06 01:27:19;;;;;;;4.63;0.80;;;;;;;;;;694152;28;868;-67
2021/10/06 01:27:39;;;;;;;4.20;0.80;;;;;;;;;;694054;28;1906;-67
2021/10/06 01:27:59;;;;;;;5.30;0.90;;;;;;;;;;694194;28;858;-67
2021/10/06 01:28:20;;;;;;;5.90;0.80;;;;;;;;;;694008;28;818;-66
2021/10/06 01:28:40;;;;;;;6.00;0.90;;;;;;;;;;694221;28;982;-68
2021/10/06 01:29:00;;;;;;;4.77;0.80;;;;;;;;;;694712;28;878;-68
2021/10/06 01:29:20;;;;;;;4.87;1.10;;;;;;;;;;694804;28;947;-68
2021/10/06 01:29:40;;;;;;;4.77;0.97;;;;;;;;;;694806;28;1448;-67
2021/10/06 01:30:01;;;;;;;4.70;0.80;;;;;;;;;;696863;28;1416;-66
2021/10/06 01:30:21;;;;;;;5.63;1.17;;;;;;;;;;697540;28;868;-67
2021/10/06 01:30:41;;;;;;;6.53;1.17;;;;;;;;;;697289;28;1023;-68
2021/10/06 01:31:01;;;;;;;5.73;1.10;;;;;;;;;;697368;28;1018;-66
2021/10/06 01:31:28;;;;;;;5.97;1.00;;;;;;;;;;698501;28;1273;-68
2021/10/06 01:31:48;;;;;;;5.68;1.10;;;;;;;;;;696672;28;1472;-68
2021/10/06 01:32:15;;;;;;;5.00;1.05;;;;;;;;;;694458;28;1011;-67
2021/10/06 01:32:36;;;;;;;6.15;1.35;;;;;;;;;;694022;28;943;-67
2021/10/06 01:32:56;;;;;;;6.30;1.08;;;;;;;;;;693668;28;1035;-67
2021/10/06 01:33:17;;;;;;;6.37;1.10;;;;;;;;;;693994;28;837;-68
2021/10/06 01:33:37;;;;;;;6.83;1.03;;;;;;;;;;694338;28;803;-67
2021/10/06 01:33:57;;;;;;;5.37;1.00;;;;;;;;;;694061;28;998;-67
2021/10/06 01:34:18;;;;;;;5.93;0.97;;;;;;;;;;694124;28;919;-67
2021/10/06 01:34:39;;;;;;;5.90;0.95;;;;;;;;;;693995;28;1086;-68
2021/10/06 01:35:00;;;;;;;5.53;1.20;;;;;;;;;;693973;28;999;-67
2021/10/06 01:35:21;;;;;;;4.20;0.93;;;;;;;;;;694172;28;848;-67
2021/10/06 01:35:41;;;;;;;4.43;0.90;;;;;;;;;;694945;28;1487;-67
2021/10/06 01:36:01;;;;;;;4.37;0.83;;;;;;;;;;696922;28;816;-67
2021/10/06 01:36:21;;;;;;;4.83;1.13;;;;;;;;;;696960;28;1027;-67
2021/10/06 01:36:42;;;;;;;5.25;1.00;;;;;;;;;;696653;28;987;-66
2021/10/06 01:37:02;;;;;;;3.70;0.80;;;;;;;;;;696930;28;789;-66
2021/10/06 01:37:22;;;;;;;5.20;1.17;;;;;;;;;;696906;28;772;-68
2021/10/06 01:37:43;;;;;;;6.53;1.20;;;;;;;;;;696850;28;963;-67
2021/10/06 01:38:03;;;;;;;6.53;1.00;;;;;;;;;;696970;28;869;-67
2021/10/06 01:38:23;;;;;;;6.25;1.02;;;;;;;;;;696768;28;797;-67
2021/10/06 01:38:43;;;;;;;5.87;1.23;;;;;;;;;;696858;28;820;-67
2021/10/06 01:39:06;;;;;;;5.33;1.30;;;;;;;;;;696795;28;1034;-67
2021/10/06 01:39:26;;;;;;;3.92;0.90;;;;;;;;;;696836;28;891;-68
2021/10/06 01:39:46;;;;;;;5.65;1.17;;;;;;;;;;696893;28;1051;-69
2021/10/06 01:40:07;;;;;;;4.83;1.00;;;;;;;;;;696926;28;885;-67
2021/10/06 01:40:28;;;;;;;5.03;0.80;;;;;;;;;;696450;28;812;-67
2021/10/06 01:40:48;;;;;;;4.93;0.80;;;;;;;;;;696572;28;1109;-67
2021/10/06 01:41:08;;;;;;;4.67;1.00;;;;;;;;;;696611;28;927;-68
2021/10/06 01:41:31;;;;;;;4.90;1.10;;;;;;;;;;696498;28;1413;-67
2021/10/06 01:41:51;;;;;;;3.70;0.88;;;;;;;;;;695335;28;1415;-67
2021/10/06 01:42:11;;;;;;;3.97;0.80;;;;;;;;;;696690;28;975;-68
2021/10/06 01:42:31;;;;;;;3.73;0.87;;;;;;;;;;696768;28;912;-67
2021/10/06 01:42:53;;;;;;;3.88;0.98;;;;;;;;;;696307;28;1187;-67
2021/10/06 01:43:13;;;;;;;5.55;1.00;;;;;;;;;;696793;28;812;-67
2021/10/06 01:43:33;;;;;;;4.03;0.90;;;;;;;;;;696782;28;793;-67
2021/10/06 01:43:53;;;;;;;6.73;1.03;;;;;;;;;;696840;28;915;-68
2021/10/06 01:44:15;;;;;;;5.50;0.83;;;;;;;;;;696598;28;977;-67
2021/10/06 01:44:35;;;;;;;5.55;0.90;;;;;;;;;;696803;28;1097;-67
2021/10/06 01:44:56;;;;;;;6.10;1.00;;;;;;;;;;696862;28;914;-67
2021/10/06 01:45:17;;;;;;;5.47;0.90;;;;;;;;;;696721;28;826;-67
2021/10/06 01:45:40;;;;;;;5.50;0.90;;;;;;;;;;696803;28;844;-67
2021/10/06 01:46:00;;;;;;;5.55;1.02;;;;;;;;;;696799;28;983;-66
2021/10/06 01:46:20;;;;;;;6.90;1.50;;;;;;;;;;696579;28;1420;-66
2021/10/06 01:46:41;;;;;;;6.93;1.70;;;;;;;;;;695406;28;1357;-67
2021/10/06 01:47:01;;;;;;;5.57;1.70;;;;;;;;;;696782;28;898;-66
2021/10/06 01:47:23;;;;;;;6.40;1.67;;;;;;;;;;696791;28;974;-68
2021/10/06 01:47:43;;;;;;;6.88;1.70;;;;;;;;;;696718;28;1898;-66
2021/10/06 01:48:07;;;;;;;7.07;1.60;;;;;;;;;;696815;28;822;-66
2021/10/06 01:48:27;;;;;;;7.00;1.42;;;;;;;;;;696827;28;925;-67
2021/10/06 01:48:48;;;;;;;7.63;1.60;;;;;;;;;;696486;28;1432;-67
2021/10/06 01:49:08;;;;;;;7.17;1.50;;;;;;;;;;694093;28;1451;-67
2021/10/06 01:49:28;;;;;;;6.73;1.50;;;;;;;;;;693973;28;876;-67
2021/10/06 01:49:48;;;;;;;8.30;1.60;;;;;;;;;;694034;28;896;-68
2021/10/06 01:50:09;;;;;;;9.27;1.47;;;;;;;;;;694117;28;876;-67
2021/10/06 01:50:29;;;;;;;8.98;1.75;;;;;;;;;;695096;28;1421;-68
2021/10/06 01:50:49;;;;;;;9.37;1.80;;;;;;;;;;693940;28;1416;-67
2021/10/06 01:51:10;;;;;;;8.80;1.60;;;;;;;;;;695161;28;1341;-68
2021/10/06 01:51:30;;;;;;;9.50;1.97;;;;;;;;;;693991;28;1269;-67
2021/10/06 01:51:51;;;;;;;9.60;2.40;;;;;;;;;;694018;28;978;-67
2021/10/06 01:52:11;;;;;;;9.00;2.70;;;;;;;;;;694609;28;1393;-68
2021/10/06 01:52:31;;;;;;;8.53;2.73;;;;;;;;;;696860;28;868;-68
2021/10/06 01:52:53;;;;;;;8.93;2.60;;;;;;;;;;696173;28;1094;-67
2021/10/06 01:53:14;;;;;;;11.40;2.97;;;;;;;;;;696762;28;1867;-67
2021/10/06 01:53:35;;;;;;;10.10;2.95;;;;;;;;;;696779;28;1042;-67
2021/10/06 01:53:56;;;;;;;10.27;3.08;;;;;;;;;;695107;28;1514;-67
2021/10/06 01:54:16;;;;;;;9.02;3.10;;;;;;;;;;694114;28;892;-67
2021/10/06 01:54:39;;;;;;;8.70;2.92;;;;;;;;;;693916;28;1057;-68
2021/10/06 01:55:00;;;;;;;8.85;2.95;;;;;;;;;;695645;28;1400;-67
2021/10/06 01:55:30;;;;;;;8.33;2.30;;;;;;;;;;696843;28;996;-67
2021/10/06 01:55:50;;;;;;;8.77;2.00;;;;;;;;;;696689;28;817;-68
2021/10/06 01:56:10;;;;;;;7.65;1.80;;;;;;;;;;696797;28;1167;-67
2021/10/06 01:56:31;;;;;;;8.30;1.97;;;;;;;;;;696765;28;884;-67
2021/10/06 01:56:51;;;;;;;7.15;1.35;;;;;;;;;;696750;28;930;-67
2021/10/06 01:57:12;;;;;;;5.67;1.40;;;;;;;;;;696809;28;927;-68
2021/10/06 01:57:32;;;;;;;7.38;1.60;;;;;;;;;;696608;28;1568;-67
2021/10/06 01:57:53;;;;;;;8.50;1.80;;;;;;;;;;696816;28;982;-68
2021/10/06 01:58:15;;;;;;;8.80;2.00;;;;;;;;;;696752;28;998;-68
2021/10/06 01:58:35;;;;;;;6.90;1.80;;;;;;;;;;696761;28;842;-67
2021/10/06 01:58:59;;;;;;;5.90;1.63;;;;;;;;;;696710;28;796;-67
2021/10/06 01:59:19;;;;;;;7.03;1.95;;;;;;;;;;696764;28;974;-68
2021/10/06 01:59:40;;;;;;;7.83;1.97;;;;;;;;;;696758;28;875;-68
2021/10/06 02:00:00;;;;;;;6.95;2.17;;;;;;;;;;696779;28;899;-68
2021/10/06 02:00:20;;;;;;;7.07;2.13;;;;;;;;;;696180;28;1372;-68
2021/10/06 02:00:41;;;;;;;9.02;2.35;;;;;;;;;;695789;28;1380;-68
2021/10/06 02:01:02;;;;;;;7.97;2.13;;;;;;;;;;696671;28;1005;-69
2021/10/06 02:01:23;;;;;;;7.68;1.90;;;;;;;;;;696648;28;1409;-68
2021/10/06 02:01:43;;;;;;;8.07;1.97;;;;;;;;;;696686;28;1029;-67
2021/10/06 02:02:03;;;;;;;8.30;1.97;;;;;;;;;;696838;28;824;-69
2021/10/06 02:02:23;;;;;;;6.27;1.60;;;;;;;;;;696746;28;996;-70
2021/10/06 02:02:43;;;;;;;6.80;1.52;;;;;;;;;;696494;28;816;-68
2021/10/06 02:03:03;;;;;;;6.37;1.30;;;;;;;;;;696672;28;923;-70
2021/10/06 02:03:24;;;;;;;7.70;1.53;;;;;;;;;;696512;28;1405;-69
2021/10/06 02:03:44;;;;;;;7.47;1.57;;;;;;;;;;696833;28;887;-70
2021/10/06 02:04:04;;;;;;;6.53;1.60;;;;;;;;;;696602;28;818;-68
2021/10/06 02:04:24;;;;;;;7.03;1.70;;;;;;;;;;696791;28;924;-70
2021/10/06 02:04:45;;;;;;;6.80;1.43;;;;;;;;;;696837;28;946;-68
2021/10/06 02:05:08;;;;;;;7.17;1.63;;;;;;;;;;696654;28;898;-68
2021/10/06 02:05:33;;;;;;;6.40;1.70;;;;;;;;;;696800;28;918;-70
2021/10/06 02:05:54;;;;;;;9.85;2.08;;;;;;;;;;696017;28;1384;-68
2021/10/06 02:06:14;;;;;;;9.20;2.20;;;;;;;;;;694116;28;888;-69
2021/10/06 02:06:34;;;;;;;7.67;2.10;;;;;;;;;;694120;28;1014;-69
2021/10/06 02:06:54;;;;;;;8.07;2.00;;;;;;;;;;693973;28;803;-69
2021/10/06 02:07:14;;;;;;;9.47;2.20;;;;;;;;;;693997;28;998;-70
2021/10/06 02:07:34;;;;;;;9.23;2.40;;;;;;;;;;694014;28;1973;-70
2021/10/06 02:07:55;;;;;;;7.70;2.13;;;;;;;;;;693924;28;878;-69
2021/10/06 02:08:16;;;;;;;7.83;1.80;;;;;;;;;;694053;28;999;-74
2021/10/06 02:08:36;;;;;;;6.38;1.63;;;;;;;;;;694040;28;977;-74